АеродромСадржај TAF прогнозе
LYBETAF LYBE 101700Z 1018/1118 02008KT CAVOK TX21/1113Z TN06/1104Z =
LYBTTAF COR LYBT 101700Z 1018/1118 02008KT CAVOK TX21/1113Z TN02/1104Z=
LYKVTAF LYKV 101700Z 1018/1118 32005KT CAVOK TX21/1113Z TN01/1104Z=
LYNITAF LYNI 101700Z 1018/1118 31012KT CAVOK TX21/1112Z TN01/1104Z BECMG 1020/1022 02004KT=
LYVRTAF LYVR 101700Z 1018/1118 36008KT CAVOK TX20/1113Z TN01/1104Z=
LYUZTAF LYUZ 101700Z 1018/1118 01006KT CAVOK TX15/1113Z TN01/1104Z=
LYPGTAF LYPG 101700Z 1018/1118 36005KT CAVOK TX25/1113Z TN07/1104Z=
LYTVTAF LYTV 101700Z 1018/1118 36008KT CAVOK TX23/1113Z TN06/1103Z=

Подаци учитани у: 2020-04-10 18:26:18 UTC

METAR, TAF, AIRMET, GAMET, SIGMET

Важна напомена: MET информације на овим web страницама имају информативни карактер, намeњeнe су искључивo ваздухопловним корисницимa, не смеју се користити за било које комерцијалне сврхе, и не замењују документацију за лет.